Time;durP1;ratioP1;P1;durP2;ratioP2;P2;SDS_P1;SDS_P2;PMS_P1;PMS_P2;Temp;Humidity;BMP_temperature;BMP_pressure;BME280_temperature;BME280_humidity;BME280_pressure;Samples;Min_cycle;Max_cycle;Signal;HPM_P1;HPM_P2
2021/12/02 00:00:42;;;;;;;;;27.75;24.00;;;;;6.96;57.40;100937.88;146609;638;45030;-73
2021/12/02 00:03:35;;;;;;;;;34.50;30.00;;;;;7.02;57.76;100946.03;146609;588;46012;-72
2021/12/02 00:06:28;;;;;;;;;32.25;26.50;;;;;6.97;59.22;100949.09;146604;610;46020;-71
2021/12/02 00:09:20;;;;;;;;;50.75;40.00;;;;;6.87;58.99;100960.44;146606;582;46012;-71
2021/12/02 00:12:13;;;;;;;;;34.00;29.25;;;;;6.74;59.63;100953.56;146606;690;46020;-71
2021/12/02 00:15:07;;;;;;;;;32.00;25.50;;;;;6.68;58.66;100954.00;146605;612;46017;-71
2021/12/02 00:21:28;;;;;;;;;29.25;25.25;;;;;6.57;58.39;100954.03;146605;588;46033;-72
2021/12/02 00:24:24;;;;;;;;;39.00;32.25;;;;;5.45;58.65;100770.97;146610;628;45021;-75
2021/12/02 00:27:17;;;;;;;;;34.75;31.00;;;;;6.56;58.96;100959.97;146606;563;46012;-74
2021/12/02 00:30:10;;;;;;;;;33.75;30.25;;;;;6.54;58.96;100964.12;146610;578;46014;-75
2021/12/02 00:33:05;;;;;;;;;35.25;27.50;;;;;6.51;59.07;100969.97;146607;570;46012;-75
2021/12/02 00:35:58;;;;;;;;;32.00;30.50;;;;;6.52;58.48;100966.59;146606;599;46020;-74
2021/12/02 00:38:51;;;;;;;;;31.50;27.50;;;;;6.55;58.52;100965.94;146605;569;47012;-73
2021/12/02 00:41:44;;;;;;;;;25.25;22.25;;;;;6.54;59.45;100964.12;146608;587;46010;-72
2021/12/02 00:44:36;;;;;;;;;28.75;24.50;;;;;6.46;59.78;100966.16;146608;689;47012;-72
2021/12/02 00:47:29;;;;;;;;;28.75;23.75;;;;;6.37;59.95;100963.81;146608;577;46020;-72
2021/12/02 00:50:22;;;;;;;;;26.75;22.00;;;;;6.34;59.43;100971.31;146604;571;47012;-72
2021/12/02 00:53:15;;;;;;;;;31.00;24.00;;;;;6.32;59.66;100965.16;146610;571;46010;-73
2021/12/02 00:56:11;;;;;;;;;26.50;20.25;;;;;6.31;59.19;100963.38;146606;574;46014;-71
2021/12/02 00:59:03;;;;;;;;;24.00;18.25;;;;;6.31;60.74;100949.63;146606;564;46916;-72
2021/12/02 01:01:56;;;;;;;;;22.25;21.75;;;;;6.30;60.36;100948.72;146607;629;46026;-77
2021/12/02 01:04:48;;;;;;;;;16.50;14.75;;;;;6.31;59.82;100957.34;146607;574;46020;-76
2021/12/02 01:07:41;;;;;;;;;22.25;19.50;;;;;6.29;59.42;100946.91;146608;580;46012;-82
2021/12/02 01:10:33;;;;;;;;;22.75;20.25;;;;;6.24;59.93;100948.28;146606;700;46020;-79
2021/12/02 01:13:28;;;;;;;;;23.25;18.25;;;;;6.18;60.02;100953.00;146605;783;46017;-71
2021/12/02 01:16:22;;;;;;;;;24.25;21.00;;;;;6.09;60.56;100939.44;146609;588;46010;-72
2021/12/02 01:19:14;;;;;;;;;23.75;23.50;;;;;6.04;61.01;100941.69;146605;611;46016;-73
2021/12/02 01:22:07;;;;;;;;;25.50;21.75;;;;;5.98;61.52;100937.00;146607;604;46021;-79
2021/12/02 01:25:00;;;;;;;;;24.75;19.50;;;;;6.00;60.11;100934.53;146604;575;46016;-78
2021/12/02 01:27:53;;;;;;;;;22.00;18.50;;;;;6.08;60.93;100933.41;146607;588;46010;-75
2021/12/02 01:30:46;;;;;;;;;19.00;17.00;;;;;6.12;60.26;100942.25;146608;583;46012;-75
2021/12/02 01:33:39;;;;;;;;;15.00;14.25;;;;;6.15;60.19;100932.16;146610;600;46020;-74
2021/12/02 01:36:37;;;;;;;;;13.00;10.25;;;;;6.20;59.39;100930.84;146605;567;46013;-74
2021/12/02 01:39:30;;;;;;;;;16.00;14.25;;;;;6.25;59.53;100929.47;146608;603;46020;-73
2021/12/02 01:42:28;;;;;;;;;14.25;12.00;;;;;6.27;59.22;100922.75;146604;629;47012;-75
2021/12/02 01:45:24;;;;;;;;;12.75;9.25;;;;;6.28;59.26;100923.62;146608;587;46010;-74
2021/12/02 01:48:27;;;;;;;;;8.00;7.00;;;;;6.23;59.32;100910.41;146607;570;46016;-74
2021/12/02 01:51:23;;;;;;;;;7.75;6.50;;;;;6.19;59.16;100908.41;146609;572;46014;-72
2021/12/02 01:54:21;;;;;;;;;10.75;7.00;;;;;6.18;58.97;100906.66;146608;578;46012;-72
2021/12/02 01:57:30;;;;;;;;;9.50;7.75;;;;;6.17;59.63;100905.75;146609;579;46021;-74
2021/12/02 02:00:24;;;;;;;;;8.25;6.00;;;;;6.20;59.38;100905.97;146608;569;46012;-74
2021/12/02 02:03:18;;;;;;;;;7.75;7.00;;;;;6.22;59.41;100896.66;146610;649;45020;-75
2021/12/02 02:06:13;;;;;;;;;6.50;5.50;;;;;6.22;59.41;100888.94;146606;618;46017;-75
2021/12/02 02:09:04;;;;;;;;;7.25;5.00;;;;;6.22;59.42;100895.75;146609;579;46010;-74
2021/12/02 02:11:57;;;;;;;;;5.25;5.25;;;;;6.16;60.36;100883.34;146606;578;47012;-74
2021/12/02 02:14:49;;;;;;;;;7.75;5.50;;;;;6.12;59.33;100883.03;146603;573;46021;-74
2021/12/02 02:17:51;;;;;;;;;5.00;4.25;;;;;6.10;60.07;100879.44;146607;604;46033;-73
2021/12/02 02:21:02;;;;;;;;;7.75;4.75;;;;;6.08;60.10;100889.66;146605;571;46021;-73
2021/12/02 02:24:00;;;;;;;;;8.75;6.75;;;;;6.11;59.99;100886.41;146606;637;46012;-72
2021/12/02 02:26:52;;;;;;;;;5.00;5.00;;;;;6.15;59.27;100883.25;146608;617;46020;-74
2021/12/02 02:29:45;;;;;;;;;6.25;5.25;;;;;6.18;59.30;100886.03;146607;586;46014;-75
2021/12/02 02:32:37;;;;;;;;;9.50;9.00;;;;;6.20;59.18;100894.78;146609;609;46020;-75
2021/12/02 02:35:29;;;;;;;;;7.25;7.00;;;;;6.18;59.30;100883.47;146606;638;45912;-75
2021/12/02 02:38:23;;;;;;;;;9.75;9.50;;;;;6.14;59.88;100886.62;146608;597;46010;-74
2021/12/02 02:41:19;;;;;;;;;10.25;7.75;;;;;6.10;60.33;100876.88;146610;569;46012;-76
2021/12/02 02:44:13;;;;;;;;;8.00;7.25;;;;;4.93;60.88;100690.09;146610;631;46010;-76
2021/12/02 02:47:05;;;;;;;;;7.50;6.00;;;;;5.97;60.05;100870.84;146604;709;46016;-76
2021/12/02 02:49:57;;;;;;;;;7.00;6.50;;;;;5.96;60.25;100863.03;146609;580;46020;-74
2021/12/02 02:52:50;;;;;;;;;9.25;7.00;;;;;5.98;59.95;100864.00;146610;602;46012;-73
2021/12/02 02:55:48;;;;;;;;;8.00;6.50;;;;;6.04;59.61;100867.03;146612;612;45020;-73
2021/12/02 02:58:57;;;;;;;;;9.50;9.50;;;;;6.10;59.83;100862.31;146609;574;45016;-72
2021/12/02 03:02:04;;;;;;;;;8.25;8.25;;;;;6.13;59.87;100859.06;146610;612;46010;-73
2021/12/02 03:05:21;;;;;;;;;8.50;8.00;;;;;6.12;59.45;100865.00;146605;570;46017;-73
2021/12/02 03:08:18;;;;;;;;;10.00;7.00;;;;;6.09;60.19;100868.25;146609;586;46020;-72
2021/12/02 03:11:12;;;;;;;;;6.50;6.25;;;;;4.86;60.83;100673.34;146607;579;46012;-71
2021/12/02 03:14:10;;;;;;;;;7.25;6.00;;;;;5.90;61.53;100872.84;146608;566;46020;-73
2021/12/02 03:17:02;;;;;;;;;7.00;6.25;;;;;4.69;61.57;100679.78;146605;656;46912;-74
2021/12/02 03:19:54;;;;;;;;;8.75;8.25;;;;;5.81;61.86;100875.62;146609;606;46011;-68
2021/12/02 03:22:48;;;;;;;;;7.25;5.00;;;;;5.83;62.25;100880.91;146603;583;47912;-69
2021/12/02 03:25:40;;;;;;;;;6.75;5.25;;;;;5.82;61.64;100885.13;146612;632;45038;-68
2021/12/02 03:28:32;;;;;;;;;8.25;4.50;;;;;5.84;60.93;100882.69;146608;643;46012;-69
2021/12/02 03:31:26;;;;;;;;;5.00;4.00;;;;;5.85;62.02;100881.91;146610;614;46010;-68
2021/12/02 03:34:19;;;;;;;;;43.75;35.00;;;;;5.84;60.91;100885.28;146604;681;46035;-69
2021/12/02 03:37:12;;;;;;;;;6.50;4.50;;;;;5.85;61.12;100884.47;146606;603;46020;-68
2021/12/02 03:40:04;;;;;;;;;5.00;5.00;;;;;5.87;60.27;100894.09;146604;613;46012;-68
2021/12/02 03:42:58;;;;;;;;;3.00;3.00;;;;;5.86;61.20;100897.47;146608;569;46010;-69
2021/12/02 03:45:50;;;;;;;;;4.75;4.50;;;;;5.82;61.51;100891.97;146605;564;46012;-73
2021/12/02 03:48:42;;;;;;;;;3.00;3.00;;;;;5.81;61.33;100893.66;146607;604;46010;-74
2021/12/02 03:51:34;;;;;;;;;3.00;3.00;;;;;5.77;61.38;100887.41;146605;585;46012;-73
2021/12/02 03:54:26;;;;;;;;;2.50;2.50;;;;;5.82;60.59;100894.53;146608;593;46020;-73
2021/12/02 03:57:19;;;;;;;;;5.25;5.00;;;;;5.87;60.94;100888.94;146607;572;46016;-74
2021/12/02 04:00:12;;;;;;;;;1.50;1.50;;;;;5.94;60.51;100883.50;146610;571;45021;-74
2021/12/02 04:03:04;;;;;;;;;4.00;4.00;;;;;5.97;60.51;100885.41;146606;563;46016;-71
2021/12/02 04:05:56;;;;;;;;;2.00;1.75;;;;;5.95;61.21;100881.81;146609;578;45021;-71
2021/12/02 04:08:52;;;;;;;;;2.75;2.50;;;;;5.97;60.31;100882.81;146609;643;46012;-72
2021/12/02 04:11:55;;;;;;;;;2.50;2.50;;;;;5.98;60.03;100880.38;146612;632;45020;-71
2021/12/02 04:15:02;;;;;;;;;4.00;2.50;;;;;6.02;60.76;100884.06;146606;655;46016;-71
2021/12/02 04:17:55;;;;;;;;;3.00;2.75;;;;;6.03;60.34;100883.25;146609;596;46010;-71
2021/12/02 04:20:47;;;;;;;;;4.50;3.00;;;;;6.03;59.96;100880.69;146606;648;46012;-74
2021/12/02 04:23:39;;;;;;;;;2.75;2.75;;;;;6.06;60.34;100880.91;146608;575;46010;-73
2021/12/02 04:26:31;;;;;;;;;2.00;2.00;;;;;6.08;59.87;100870.75;146607;566;46013;-71
2021/12/02 04:29:24;;;;;;;;;2.00;1.25;;;;;6.10;60.56;100876.88;146610;566;45021;-71
2021/12/02 04:32:16;;;;;;;;;3.00;2.50;;;;;6.09;59.78;100883.69;146605;563;47014;-73
2021/12/02 04:35:10;;;;;;;;;4.00;4.00;;;;;6.08;60.22;100878.47;146606;692;46020;-73
2021/12/02 04:38:02;;;;;;;;;1.00;1.00;;;;;6.10;60.47;100876.88;146605;600;46012;-72
2021/12/02 04:40:54;;;;;;;;;7.75;3.00;;;;;6.06;60.54;100880.03;146611;563;45020;-69
2021/12/02 04:43:47;;;;;;;;;6.00;5.25;;;;;6.00;60.92;100886.50;146607;566;46017;-70
2021/12/02 04:46:39;;;;;;;;;7.25;6.00;;;;;5.94;61.37;100883.50;146607;591;46020;-69
2021/12/02 04:49:31;;;;;;;;;8.25;8.25;;;;;5.89;61.61;100886.50;146604;600;46017;-68
2021/12/02 04:52:24;;;;;;;;;8.00;6.50;;;;;5.80;62.45;100886.72;146608;572;46020;-68
2021/12/02 04:55:16;;;;;;;;;9.50;5.75;;;;;5.77;62.83;100886.50;146607;594;46012;-69
2021/12/02 04:58:09;;;;;;;;;8.50;5.75;;;;;5.77;61.95;100883.94;146609;591;45023;-69
2021/12/02 05:01:01;;;;;;;;;6.50;5.00;;;;;5.79;61.80;100884.91;146606;642;46012;-69
2021/12/02 05:03:52;;;;;;;;;7.00;6.75;;;;;5.86;61.65;100884.59;146609;567;46010;-72
2021/12/02 05:06:46;;;;;;;;;9.25;7.25;;;;;5.90;61.37;100878.00;146606;582;46016;-72
2021/12/02 05:09:38;;;;;;;;;12.00;10.00;;;;;5.92;61.07;100874.75;146604;679;46020;-70
2021/12/02 05:12:31;;;;;;;;;9.75;6.25;;;;;5.94;60.78;100880.91;146607;647;46012;-71
2021/12/02 05:15:23;;;;;;;;;7.25;7.25;;;;;5.94;61.03;100875.78;146608;583;46020;-71
2021/12/02 05:18:15;;;;;;;;;10.25;9.00;;;;;5.96;60.98;100868.19;146606;601;46013;-73
2021/12/02 05:21:07;;;;;;;;;8.75;7.00;;;;;5.97;61.51;100870.84;146610;759;45021;-73
2021/12/02 05:24:00;;;;;;;;;11.00;6.00;;;;;5.96;61.19;100863.03;146604;593;46012;-76
2021/12/02 05:26:52;;;;;;;;;12.25;6.50;;;;;5.95;61.53;100854.41;146610;688;46010;-76
2021/12/02 05:29:44;;;;;;;;;9.25;7.00;;;;;5.95;60.96;100869.84;146604;561;46016;-76
2021/12/02 05:32:36;;;;;;;;;6.50;5.50;;;;;5.99;60.96;100864.13;146608;590;46020;-79
2021/12/02 05:35:29;;;;;;;;;9.25;6.00;;;;;6.01;61.82;100862.56;146608;570;46012;-79
2021/12/02 05:38:20;;;;;;;;;10.00;9.25;;;;;6.03;61.69;100862.66;146608;604;46020;-79
2021/12/02 05:41:13;;;;;;;;;10.25;7.75;;;;;6.00;61.05;100859.88;146605;584;46912;-79
2021/12/02 05:44:05;;;;;;;;;8.00;6.75;;;;;6.00;61.10;100868.50;146608;619;46020;-78
2021/12/02 05:46:58;;;;;;;;;6.25;6.25;;;;;6.01;61.43;100865.16;146607;612;46012;-79
2021/12/02 05:49:50;;;;;;;;;9.50;7.75;;;;;6.03;61.90;100849.81;146612;574;46010;-78
2021/12/02 05:52:42;;;;;;;;;6.00;5.00;;;;;6.05;61.88;100852.50;146607;662;46037;-76
2021/12/02 05:55:35;;;;;;;;;7.00;6.75;;;;;6.06;61.78;100841.41;146611;587;46011;-77
2021/12/02 05:58:27;;;;;;;;;6.75;4.50;;;;;6.12;61.57;100849.56;146607;634;46912;-78
2021/12/02 06:01:19;;;;;;;;;6.75;5.25;;;;;6.19;60.92;100860.37;146607;632;46010;-76
2021/12/02 06:04:12;;;;;;;;;5.50;5.50;;;;;6.31;60.75;100862.06;146607;559;46013;-75
2021/12/02 06:07:04;;;;;;;;;55.25;45.50;;;;;6.40;61.49;100857.53;146609;587;46020;-70
2021/12/02 06:09:56;;;;;;;;;13.50;11.00;;;;;6.46;61.96;100860.56;146602;564;47012;-71
2021/12/02 06:12:49;;;;;;;;;14.25;14.00;;;;;6.51;60.05;100868.59;146605;637;47010;-75
2021/12/02 06:15:41;;;;;;;;;16.00;15.25;;;;;6.59;61.11;100864.88;146605;648;46912;-71
2021/12/02 06:18:33;;;;;;;;;12.75;10.50;;;;;6.97;61.23;100862.31;146609;641;46020;-72
2021/12/02 06:21:25;;;;;;;;;13.00;11.25;;;;;7.88;60.53;100861.44;146605;602;46016;-73
2021/12/02 06:24:18;;;;;;;;;12.00;8.25;;;;;9.08;58.43;100850.75;146611;565;45020;-73
2021/12/02 06:27:10;;;;;;;;;8.00;8.00;;;;;10.44;55.35;100863.66;146603;573;46017;-74
2021/12/02 06:30:03;;;;;;;;;9.25;7.00;;;;;11.68;50.81;100856.16;146605;571;47010;-74
2021/12/02 06:32:55;;;;;;;;;23.50;19.50;;;;;12.40;48.24;100850.09;146605;640;46013;-74
2021/12/02 06:35:47;;;;;;;;;7.50;7.25;;;;;12.88;47.00;100845.28;146609;584;45051;-76
2021/12/02 06:38:41;;;;;;;;;18.00;12.50;;;;;13.22;45.48;100840.66;146606;597;46012;-76
2021/12/02 06:41:33;;;;;;;;;33.75;27.75;;;;;13.45;46.72;100847.75;146608;631;46014;-77
2021/12/02 06:44:25;;;;;;;;;34.50;28.50;;;;;13.86;47.32;100857.25;146606;612;47012;-74
2021/12/02 06:47:20;;;;;;;;;14.00;12.25;;;;;14.54;45.95;100862.50;146608;611;46010;-76
2021/12/02 06:50:22;;;;;;;;;20.50;19.00;;;;;15.22;44.29;100877.13;146605;574;46016;-74
2021/12/02 06:53:16;;;;;;;;;16.75;15.75;;;;;15.83;43.44;100870.50;146608;691;46020;-75
2021/12/02 06:56:09;;;;;;;;;24.50;21.25;;;;;16.52;42.65;100869.12;146604;576;46017;-73
2021/12/02 06:59:01;;;;;;;;;21.00;17.50;;;;;16.97;41.56;100859.09;146608;658;45915;-73
2021/12/02 07:01:53;;;;;;;;;18.25;18.00;;;;;17.28;40.78;100852.94;146605;583;46016;-75
2021/12/02 07:04:45;;;;;;;;;16.00;14.25;;;;;17.73;40.70;100854.94;146606;716;46021;-76
2021/12/02 07:07:37;;;;;;;;;11.50;10.50;;;;;18.27;39.32;100860.56;146605;646;46016;-75
2021/12/02 07:10:31;;;;;;;;;12.50;11.00;;;;;18.70;38.05;100855.38;146606;573;46020;-84
2021/12/02 07:13:23;;;;;;;;;18.00;14.50;;;;;19.04;38.65;100863.06;146605;570;47014;-84
2021/12/02 07:16:16;;;;;;;;;19.00;15.75;;;;;19.31;37.46;100863.56;146607;682;46020;-81
2021/12/02 07:19:13;;;;;;;;;23.75;19.75;;;;;19.43;37.10;100876.03;146607;602;46012;-71
2021/12/02 07:22:05;;;;;;;;;26.00;22.75;;;;;19.39;34.46;100880.38;146609;598;46010;-71
2021/12/02 07:24:57;;;;;;;;;44.50;35.50;;;;;19.09;36.30;100866.66;146607;572;45017;-71
2021/12/02 07:27:50;;;;;;;;;31.00;28.00;;;;;18.22;36.24;100750.22;146606;591;46010;-71
2021/12/02 07:30:42;;;;;;;;;20.75;17.75;;;;;18.72;35.38;100870.28;146607;563;46012;-71
2021/12/02 07:33:42;;;;;;;;;22.50;20.50;;;;;18.42;36.37;100864.41;146607;564;46021;-71
2021/12/02 07:36:36;;;;;;;;;9.50;8.25;;;;;17.84;36.04;100843.84;146605;668;46912;-71
2021/12/02 07:39:29;;;;;;;;;7.25;7.00;;;;;17.72;38.02;100862.75;146607;572;46020;-71
2021/12/02 07:42:21;;;;;;;;;7.00;6.00;;;;;17.57;37.44;100859.75;146604;569;46016;-71
2021/12/02 07:45:14;;;;;;;;;8.75;8.00;;;;;17.43;38.61;100867.28;146608;602;46020;-71
2021/12/02 07:48:09;;;;;;;;;6.50;6.00;;;;;17.34;40.12;100862.69;146606;574;46012;-72
2021/12/02 07:51:05;;;;;;;;;15.50;14.25;;;;;17.33;39.05;100865.28;146607;636;46014;-72
2021/12/02 07:53:58;;;;;;;;;11.25;9.00;;;;;17.29;40.48;100874.81;146604;579;46016;-73
2021/12/02 07:56:51;;;;;;;;;12.75;9.25;;;;;17.29;40.28;100870.44;146604;598;46020;-72
2021/12/02 07:59:44;;;;;;;;;16.75;15.00;;;;;17.25;40.72;100862.44;146606;591;47014;-71
2021/12/02 08:02:36;;;;;;;;;16.00;14.00;;;;;17.22;41.10;100870.22;146609;614;45021;-72
2021/12/02 08:05:30;;;;;;;;;5.75;5.00;;;;;16.38;39.06;100714.31;146605;573;46912;-72
2021/12/02 08:08:22;;;;;;;;;2.00;2.00;;;;;17.25;41.04;100878.16;146608;658;46010;-73
2021/12/02 08:11:15;;;;;;;;;0.33;0.33;;;;;17.28;39.82;100871.28;146608;631;46012;-73
2021/12/02 08:14:13;;;;;;;;;4.50;3.75;;;;;17.30;40.39;100876.56;146607;578;46010;-71
2021/12/02 08:17:06;;;;;;;;;7.00;7.00;;;;;17.32;40.41;100882.75;146608;615;46033;-72
2021/12/02 08:19:58;;;;;;;;;8.75;8.25;;;;;17.36;40.99;100888.97;146608;571;46020;-71
2021/12/02 08:22:50;;;;;;;;;15.50;12.50;;;;;17.42;41.28;100897.87;146607;628;47012;-71
2021/12/02 08:25:42;;;;;;;;;19.25;16.75;;;;;17.58;41.67;100893.03;146605;592;46020;-74
2021/12/02 08:28:34;;;;;;;;;7.00;6.00;;;;;17.70;41.18;100886.34;146607;624;46012;-75
2021/12/02 08:31:27;;;;;;;;;7.25;5.50;;;;;17.81;41.03;100894.50;146611;635;45021;-76
2021/12/02 08:34:19;;;;;;;;;5.00;4.75;;;;;17.86;41.15;100900.75;146605;578;46012;-79
2021/12/02 08:37:12;;;;;;;;;2.00;2.00;;;;;17.90;41.92;100896.47;146610;607;45020;-82
2021/12/02 08:40:05;;;;;;;;;2.00;2.00;;;;;17.87;42.27;100899.88;146606;695;46012;-81
2021/12/02 08:42:57;;;;;;;;;2.67;2.67;;;;;17.86;42.49;100892.00;146608;632;45020;-80
2021/12/02 08:45:49;;;;;;;;;3.50;3.50;;;;;17.89;42.48;100894.69;146605;664;46017;-78
2021/12/02 08:48:43;;;;;;;;;7.00;5.50;;;;;17.88;43.26;100888.56;146604;567;47010;-72
2021/12/02 08:51:35;;;;;;;;;3.67;3.00;;;;;17.92;42.68;100890.41;146604;592;46016;-76
2021/12/02 08:54:27;;;;;;;;;10.50;9.75;;;;;17.86;43.05;100887.63;146603;575;46020;-80
2021/12/02 08:57:22;;;;;;;;;6.50;3.00;;;;;17.82;42.89;100892.75;146606;691;47012;-84
2021/12/02 09:00:17;;;;;;;;;5.25;5.00;;;;;17.75;43.12;100891.69;146610;570;45020;-77
2021/12/02 09:03:11;;;;;;;;;2.25;1.50;;;;;17.70;43.30;100886.34;146606;631;46016;-75
2021/12/02 09:06:08;;;;;;;;;3.33;2.33;;;;;17.64;43.30;100874.81;146608;696;46020;-75
2021/12/02 09:09:02;;;;;;;;;1.33;1.00;;;;;17.64;43.55;100864.31;146609;564;46012;-75
2021/12/02 09:11:55;;;;;;;;;3.25;2.00;;;;;17.64;43.47;100872.19;146610;595;45020;-75
2021/12/02 09:14:47;;;;;;;;;3.50;1.50;;;;;16.74;44.47;100711.78;146607;572;46012;-75
2021/12/02 09:17:40;;;;;;;;;8.00;7.25;;;;;17.76;44.05;100877.75;146608;570;46010;-76
2021/12/02 09:20:33;;;;;;;;;17.00;16.00;;;;;17.80;42.74;100869.12;146608;569;46016;-74
2021/12/02 09:23:25;;;;;;;;;59.25;45.75;;;;;17.91;44.94;100870.28;146606;566;46020;-75
2021/12/02 09:26:18;;;;;;;;;5.75;5.75;;;;;18.03;41.62;100850.41;146607;703;47012;-74
2021/12/02 09:29:10;;;;;;;;;16.75;13.50;;;;;18.12;43.35;100862.00;146607;596;46020;-74
2021/12/02 09:32:02;;;;;;;;;14.50;14.00;;;;;18.13;43.16;100844.50;146604;577;47014;-74
2021/12/02 09:34:54;;;;;;;;;2.00;2.00;;;;;18.15;43.53;100848.94;146608;644;46010;-74
2021/12/02 09:37:47;;;;;;;;;21.00;19.25;;;;;18.22;44.46;100835.12;146607;626;46012;-75
2021/12/02 09:40:41;;;;;;;;;9.75;9.00;;;;;18.32;42.70;100833.59;146609;707;45021;-75
2021/12/02 09:43:33;;;;;;;;;4.67;4.67;;;;;18.37;43.04;100828.41;146605;569;46016;-74
2021/12/02 09:46:25;;;;;;;;;1.67;1.67;;;;;18.37;41.37;100829.28;146609;590;46010;-75
2021/12/02 09:49:18;;;;;;;;;5.75;4.75;;;;;18.39;42.55;100827.59;146606;578;46012;-75
2021/12/02 09:52:14;;;;;;;;;2.33;2.33;;;;;18.43;41.37;100821.56;146608;641;45020;-74
2021/12/02 09:55:20;;;;;;;;;0.33;0.00;;;;;18.50;38.88;100817.31;146606;580;47012;-75
2021/12/02 09:58:20;;;;;;;;;2.00;2.00;;;;;18.49;41.11;100806.78;146608;577;46020;-74
2021/12/02 10:01:14;;;;;;;;;2.00;2.00;;;;;18.51;40.47;100805.09;146607;565;46013;-74
2021/12/02 10:04:06;;;;;;;;;1.33;1.00;;;;;18.51;40.66;100798.09;146611;603;46010;-74
2021/12/02 10:07:35;;;;;;;;;2.00;2.00;;;;;17.46;41.70;100605.22;146607;596;46912;-76
2021/12/02 10:10:33;;;;;;;;;0.67;0.67;;;;;18.59;40.40;100796.47;146606;571;47012;-75
2021/12/02 10:13:33;;;;;;;;;2.33;2.33;;;;;18.62;40.41;100791.28;146607;573;46016;-75
2021/12/02 10:16:32;;;;;;;;;1.00;1.00;;;;;18.54;41.16;100790.28;146610;581;47010;-75
2021/12/02 10:19:28;;;;;;;;;2.00;2.00;;;;;18.49;41.95;100793.66;146606;593;46012;-75
2021/12/02 10:22:22;;;;;;;;;3.00;3.00;;;;;18.44;41.85;100786.59;146608;564;46020;-75
2021/12/02 10:25:15;;;;;;;;;3.67;2.67;;;;;18.53;41.85;100785.84;146606;586;46016;-76
2021/12/02 10:28:15;;;;;;;;;3.25;3.25;;;;;18.62;40.71;100782.53;146606;566;46020;-75
2021/12/02 10:31:10;;;;;;;;;5.00;4.00;;;;;18.65;40.51;100774.72;146604;584;46017;-75
2021/12/02 10:34:08;;;;;;;;;2.33;1.33;;;;;18.67;40.66;100771.25;146609;571;46020;-75
2021/12/02 10:37:13;;;;;;;;;2.33;2.33;;;;;18.72;39.92;100771.34;146605;609;47013;-76
2021/12/02 10:40:12;;;;;;;;;7.33;4.00;;;;;18.44;41.26;100725.28;146609;653;46020;-75
2021/12/02 10:43:11;;;;;;;;;3.67;3.67;;;;;18.80;41.29;100759.28;146606;677;46016;-76
2021/12/02 10:46:21;;;;;;;;;4.67;2.67;;;;;18.88;41.54;100759.44;146609;619;46021;-75
2021/12/02 10:49:19;;;;;;;;;2.67;2.67;;;;;18.84;40.53;100749.69;146605;612;46016;-76
2021/12/02 10:52:16;;;;;;;;;3.00;3.00;;;;;18.73;40.24;100751.28;146603;590;46030;-76
2021/12/02 10:55:18;;;;;;;;;3.67;2.67;;;;;18.67;40.52;100742.37;146605;589;46016;-75
2021/12/02 10:58:09;;;;;;;;;1.00;1.00;;;;;18.72;41.23;100745.06;146610;576;46020;-76
2021/12/02 11:01:02;;;;;;;;;3.67;1.67;;;;;18.85;41.59;100741.87;146605;569;47012;-73
2021/12/02 11:04:12;;;;;;;;;3.00;3.00;;;;;19.03;42.33;100736.03;146609;615;45030;-71
2021/12/02 11:07:10;;;;;;;;;3.33;2.67;;;;;19.17;41.24;100727.50;146610;576;45016;-88
2021/12/02 11:10:05;;;;;;;;;5.25;5.25;;;;;19.25;41.79;100736.38;146609;573;46020;-85
2021/12/02 11:12:59;;;;;;;;;3.33;3.33;;;;;19.26;38.44;100728.53;146608;577;46016;-85
2021/12/02 11:15:51;;;;;;;;;10.00;8.75;;;;;19.19;39.66;100721.41;146609;571;46021;-85
2021/12/02 11:18:44;;;;;;;;;3.67;3.33;;;;;19.03;39.51;100714.13;146607;641;46012;-86
2021/12/02 11:21:41;;;;;;;;;1.67;1.67;;;;;18.85;40.57;100704.22;146609;569;45038;-86
2021/12/02 11:24:37;;;;;;;;;4.00;3.00;;;;;18.84;40.37;100695.41;146609;589;45030;-85
2021/12/02 11:27:39;;;;;;;;;3.25;3.25;;;;;18.80;40.04;100693.59;146611;615;45020;-87
2021/12/02 11:30:33;;;;;;;;;4.00;3.50;;;;;18.75;42.06;100690.00;146604;575;46013;-87
2021/12/02 11:33:39;;;;;;;;;5.33;3.00;;;;;18.87;42.61;100686.72;146608;626;46020;-86
2021/12/02 11:36:32;;;;;;;;;3.25;3.25;;;;;19.07;41.71;100676.53;146604;740;46016;-85
2021/12/02 11:39:24;;;;;;;;;3.00;3.00;;;;;19.35;40.47;100665.56;146610;570;46020;-85
2021/12/02 11:42:16;;;;;;;;;11.25;9.50;;;;;19.48;40.64;100671.00;146606;583;47012;-85
2021/12/02 11:45:11;;;;;;;;;5.25;5.25;;;;;19.57;40.38;100669.41;146606;566;46021;-86
2021/12/02 11:48:03;;;;;;;;;9.00;3.67;;;;;19.69;40.69;100659.91;146606;636;46012;-87
2021/12/02 11:51:01;;;;;;;;;4.00;4.00;;;;;19.81;40.30;100653.09;146606;574;46020;-88
2021/12/02 11:53:54;;;;;;;;;4.67;3.33;;;;;19.99;40.92;100652.41;146607;651;46017;-87
2021/12/02 11:56:46;;;;;;;;;3.50;3.25;;;;;20.17;39.63;100648.22;146609;639;46010;-86
2021/12/02 11:59:38;;;;;;;;;6.00;5.25;;;;;20.37;39.94;100658.94;146607;672;46912;-87
2021/12/02 12:02:31;;;;;;;;;4.67;3.33;;;;;20.52;39.67;100651.25;146609;655;46014;-89
2021/12/02 12:05:45;;;;;;;;;1.67;1.33;;;;;20.51;38.20;100650.34;146606;593;46016;-85
2021/12/02 12:08:45;;;;;;;;;5.00;3.00;;;;;20.35;38.74;100651.06;146610;587;46021;-87
2021/12/02 12:11:39;;;;;;;;;3.67;3.67;;;;;20.08;37.52;100655.13;146607;582;46012;-86
2021/12/02 12:14:44;;;;;;;;;2.33;2.33;;;;;19.77;39.71;100653.87;146614;574;45032;-87
2021/12/02 12:17:43;;;;;;;;;3.00;2.33;;;;;19.61;40.39;100655.41;146609;586;46912;-85
2021/12/02 12:21:01;;;;;;;;;3.00;3.00;;;;;19.55;39.43;100643.94;146609;585;46010;-86
2021/12/02 12:24:04;;;;;;;;;26.75;21.25;;;;;19.49;40.11;100657.00;146605;689;46909;-85
2021/12/02 12:26:56;;;;;;;;;7.25;6.25;;;;;19.45;39.72;100655.19;146608;637;47016;-85
2021/12/02 12:30:14;;;;;;;;;3.25;3.00;;;;;19.59;40.49;100657.16;146607;706;46017;-87
2021/12/02 12:33:09;;;;;;;;;2.75;2.50;;;;;19.75;40.01;100650.37;146610;617;45020;-85
2021/12/02 12:36:15;;;;;;;;;6.50;4.75;;;;;19.91;38.00;100640.91;146607;566;46912;-85
2021/12/02 12:39:33;;;;;;;;;2.67;2.67;;;;;20.15;40.55;100644.69;146610;621;45020;-86
2021/12/02 12:42:28;;;;;;;;;2.67;2.67;;;;;20.24;38.23;100643.03;146608;595;45912;-85
2021/12/02 12:45:46;;;;;;;;;4.33;4.33;;;;;20.16;37.50;100633.31;146614;564;45021;-83
2021/12/02 12:48:39;;;;;;;;;8.00;7.00;;;;;19.98;37.74;100621.69;146607;615;46012;-85
2021/12/02 12:51:35;;;;;;;;;8.75;6.00;;;;;19.64;39.39;100627.37;146609;573;47011;-85
2021/12/02 12:54:28;;;;;;;;;10.50;10.25;;;;;19.61;40.23;100626.47;146607;586;46012;-87
2021/12/02 12:57:20;;;;;;;;;5.33;4.33;;;;;19.80;39.70;100626.75;146608;564;46020;-84
2021/12/02 13:00:13;;;;;;;;;5.00;3.00;;;;;19.92;37.72;100618.12;146606;613;46012;-87
2021/12/02 13:03:15;;;;;;;;;6.75;6.75;;;;;20.12;37.79;100616.56;146613;575;45020;-84
2021/12/02 13:09:14;;;;;;;;;11.00;9.50;;;;;19.97;36.27;100606.78;146608;566;46020;-83
2021/12/02 13:12:07;;;;;;;;;25.00;21.50;;;;;19.95;36.66;100597.09;146605;567;46012;-85
2021/12/02 13:14:59;;;;;;;;;21.75;16.75;;;;;19.95;36.25;100597.97;146610;584;45021;-87
2021/12/02 13:17:54;;;;;;;;;8.75;8.75;;;;;19.97;37.00;100593.63;146606;685;46016;-84
2021/12/02 13:20:47;;;;;;;;;7.00;6.67;;;;;20.16;39.30;100594.69;146609;616;46014;-85
2021/12/02 13:23:39;;;;;;;;;14.75;13.00;;;;;20.39;36.88;100596.66;146603;653;46014;-84
2021/12/02 13:26:34;;;;;;;;;13.25;12.00;;;;;20.49;36.25;100601.12;146611;600;46010;-85
2021/12/02 13:29:30;;;;;;;;;18.50;16.25;;;;;20.45;37.97;100597.59;146605;612;46912;-84
2021/12/02 13:32:22;;;;;;;;;7.00;6.67;;;;;20.50;38.56;100595.00;146609;648;46020;-85
2021/12/02 13:35:27;;;;;;;;;6.00;6.00;;;;;20.65;38.80;100600.41;146604;670;46017;-84
2021/12/02 13:38:21;;;;;;;;;6.00;6.00;;;;;20.73;36.40;100608.41;146609;597;46010;-84